Time;durP1;ratioP1;P1;durP2;ratioP2;P2;SDS_P1;SDS_P2;PMS_P1;PMS_P2;Temp;Humidity;BMP_temperature;BMP_pressure;BME280_temperature;BME280_humidity;BME280_pressure;Samples;Min_cycle;Max_cycle;Signal;HPM_P1;HPM_P2
2023/04/17 00:00:49;;;;;;;38.13;23.30;;;;;;;8.83;100.00;100958.03;6233876;23;20012;-92
2023/04/17 00:03:17;;;;;;;33.60;23.55;;;;;;;9.13;100.00;101004.63;6234871;23;20024;-91
2023/04/17 00:05:45;;;;;;;33.70;23.88;;;;;;;8.99;100.00;100991.00;6236948;23;20055;-91
2023/04/17 00:08:17;;;;;;;39.55;25.90;;;;;;;9.05;100.00;100985.53;6235764;23;20052;-91
2023/04/17 00:10:51;;;;;;;37.78;24.95;;;;;;;9.18;100.00;101009.78;6215743;23;20017;-92
2023/04/17 00:13:34;;;;;;;39.78;26.23;;;;;;;9.06;100.00;100990.78;6236434;23;20020;-92
2023/04/17 00:16:05;;;;;;;38.58;25.83;;;;;;;9.17;100.00;101002.78;6234856;23;20024;-92
2023/04/17 00:18:39;;;;;;;36.20;24.98;;;;;;;9.05;100.00;100991.69;6213170;23;20021;-92
2023/04/17 00:21:06;;;;;;;36.30;25.02;;;;;;;8.76;100.00;100937.13;6259371;22;20024;-92
2023/04/17 00:23:46;;;;;;;36.42;24.58;;;;;;;8.75;100.00;100929.25;6237042;22;20019;-92
2023/04/17 00:26:33;;;;;;;39.60;26.27;;;;;;;9.15;100.00;100992.25;6235690;23;20028;-90
2023/04/17 00:29:17;;;;;;;39.05;25.65;;;;;;;9.10;100.00;100979.19;6236017;23;20070;-91
2023/04/17 00:32:07;;;;;;;39.03;25.17;;;;;;;9.15;100.00;100993.09;6208487;23;20054;-91
2023/04/17 00:34:55;;;;;;;;;;;;;;;9.13;100.00;100991.41;6210037;23;20027;-90
2023/04/17 00:37:50;;;;;;;39.20;25.83;;;;;;;8.95;100.00;100968.25;6211861;23;19919;-89
2023/04/17 00:40:50;;;;;;;39.50;26.73;;;;;;;8.97;100.00;100975.19;6209780;23;20031;-92
2023/04/17 00:43:51;;;;;;;40.37;27.77;;;;;;;8.92;100.00;100958.63;6203891;22;20028;-91
2023/04/17 00:46:41;;;;;;;39.28;26.80;;;;;;;9.08;100.00;100993.38;6205924;22;20028;-90
2023/04/17 00:49:32;;;;;;;40.90;27.73;;;;;;;9.06;100.00;100984.63;6211005;22;20079;-89
2023/04/17 00:52:28;;;;;;;38.08;26.48;;;;;;;8.88;100.00;100954.34;6209218;23;20157;-91
2023/04/17 00:55:00;;;;;;;44.63;27.92;;;;;;;9.03;100.00;100979.44;6267334;23;20028;-90
2023/04/17 00:57:30;;;;;;;43.13;27.30;;;;;;;9.04;100.00;100981.16;6244855;23;20027;-91
2023/04/17 00:59:59;;;;;;;40.10;27.60;;;;;;;8.85;100.00;100943.00;6219747;23;20008;-90
2023/04/17 01:02:33;;;;;;;40.97;27.73;;;;;;;8.97;100.00;100966.44;6246440;23;20068;-92
2023/04/17 01:05:01;;;;;;;44.72;27.90;;;;;;;8.92;100.00;100957.78;6218385;23;20158;-90
2023/04/17 01:07:32;;;;;;;41.45;27.60;;;;;;;8.99;100.00;100978.66;6243050;23;20043;-92
2023/04/17 01:10:06;;;;;;;48.40;29.73;;;;;;;8.92;100.00;100971.84;6221706;22;20018;-90
2023/04/17 01:13:04;;;;;;;45.40;29.17;;;;;;;8.88;100.00;100964.91;6245531;23;20059;-93
2023/04/17 01:15:45;;;;;;;42.55;28.52;;;;;;;8.76;100.00;100941.53;6263483;22;20126;-93
2023/04/17 01:18:22;;;;;;;44.17;29.05;;;;;;;8.81;100.00;100955.47;6271144;22;20068;-91
2023/04/17 01:20:50;;;;;;;43.05;28.67;;;;;;;8.95;100.00;100979.69;6269907;22;20051;-91
2023/04/17 01:23:20;;;;;;;39.28;27.60;;;;;;;8.86;100.00;100953.53;6213889;23;20051;-92
2023/04/17 01:25:50;;;;;;;43.88;28.33;;;;;;;9.01;100.00;100968.03;6262626;23;20032;-91
2023/04/17 01:28:24;;;;;;;44.10;28.75;;;;;;;9.01;100.00;100975.97;6269438;22;20376;-92
2023/04/17 01:30:56;;;;;;;40.03;27.15;;;;;;;8.75;100.00;100927.47;6244766;23;20028;-92
2023/04/17 01:33:24;;;;;;;39.15;26.95;;;;;;;8.98;100.00;100961.06;6208544;23;20023;-92
2023/04/17 01:35:52;;;;;;;41.53;27.17;;;;;;;8.95;100.00;100952.41;6208069;23;20027;-91
2023/04/17 01:38:35;;;;;;;42.08;27.23;;;;;;;9.16;100.00;100978.13;6240429;23;20035;-93
2023/04/17 01:41:08;;;;;;;44.05;28.85;;;;;;;9.05;100.00;100959.13;6272059;23;20017;-92
2023/04/17 01:43:41;;;;;;;41.97;28.45;;;;;;;9.08;100.00;100967.81;6248375;23;20027;-92
2023/04/17 01:46:23;;;;;;;43.90;28.00;;;;;;;8.98;100.00;100957.56;6270687;23;20413;-92
2023/04/17 01:48:59;;;;;;;41.50;27.27;;;;;;;9.00;100.00;100958.38;6242232;23;20023;-92
2023/04/17 01:51:40;;;;;;;41.75;29.15;;;;;;;8.71;100.00;100911.75;6258031;23;20055;-93
2023/04/17 01:54:07;;;;;;;44.45;29.77;;;;;;;8.90;100.00;100951.66;6253246;23;20047;-92
2023/04/17 01:56:36;;;;;;;38.88;27.75;;;;;;;9.07;100.00;100979.28;6250560;23;20019;-92
2023/04/17 01:59:13;;;;;;;38.92;26.85;;;;;;;8.75;100.00;100921.31;6228423;23;20027;-91
2023/04/17 02:01:55;;;;;;;41.25;27.95;;;;;;;9.04;100.00;100968.81;6253044;23;20062;-92
2023/04/17 02:04:28;;;;;;;40.92;27.67;;;;;;;9.11;100.00;100973.00;6253126;23;20012;-92
2023/04/17 02:06:58;;;;;;;;;;;;;;;9.14;100.00;100975.53;6236294;23;20079;-94
2023/04/17 02:09:26;;;;;;;40.20;27.02;;;;;;;9.15;100.00;100974.63;6240290;23;19922;-92
2023/04/17 02:11:59;;;;;;;41.42;26.88;;;;;;;9.14;100.00;100980.81;6232396;23;20031;-90
2023/04/17 02:14:30;;;;;;;43.03;27.63;;;;;;;9.15;100.00;100974.63;6263647;23;20094;-90
2023/04/17 02:16:58;;;;;;;41.08;27.15;;;;;;;9.13;100.00;100973.78;6242655;23;20020;-90
2023/04/17 02:19:31;;;;;;;40.15;27.10;;;;;;;9.02;100.00;100953.91;6231219;23;20098;-90
2023/04/17 02:21:59;;;;;;;42.65;27.33;;;;;;;9.11;100.00;100969.50;6230312;23;20398;-91
2023/04/17 02:24:40;;;;;;;39.67;27.27;;;;;;;9.07;100.00;100965.22;6258727;23;20047;-91
2023/04/17 02:27:15;;;;;;;42.15;27.73;;;;;;;8.91;100.00;100934.91;6197605;23;20032;-90
2023/04/17 02:30:00;;;;;;;43.20;29.25;;;;;;;9.05;100.00;100967.91;6264906;23;20071;-91
2023/04/17 02:32:34;;;;;;;41.50;27.55;;;;;;;9.01;100.00;100978.59;6242786;23;20024;-91
2023/04/17 02:35:16;;;;;;;;;;;;;;;9.01;100.00;100978.59;6222072;23;20046;-89
2023/04/17 02:38:03;;;;;;;40.63;27.27;;;;;;;9.02;100.00;100975.06;6263328;23;19911;-91
2023/04/17 02:40:31;;;;;;;45.92;29.25;;;;;;;8.94;100.00;100972.66;6255249;23;20144;-90
2023/04/17 02:43:01;;;;;;;43.65;29.77;;;;;;;8.97;100.00;100964.63;6232987;23;20067;-93
2023/04/17 02:45:35;;;;;;;43.33;27.60;;;;;;;9.01;100.00;100976.81;6222485;23;20046;-93
2023/04/17 02:48:02;;;;;;;38.72;27.08;;;;;;;8.89;100.00;100957.88;6220723;23;20004;-92
2023/04/17 02:50:44;;;;;;;43.35;28.17;;;;;;;9.02;100.00;100980.34;6256786;23;20020;-89
2023/04/17 02:53:12;;;;;;;44.42;28.67;;;;;;;8.88;100.00;100956.13;6241990;23;20030;-92
2023/04/17 02:55:39;;;;;;;41.85;28.55;;;;;;;9.03;100.00;100982.06;6265879;23;20019;-93
2023/04/17 02:58:16;;;;;;;42.88;28.60;;;;;;;8.85;100.00;100956.22;6220213;23;20014;-92
2023/04/17 03:00:46;;;;;;;43.85;29.02;;;;;;;9.03;100.00;100979.44;6240958;23;20062;-94
2023/04/17 03:03:33;;;;;;;42.33;28.50;;;;;;;8.95;100.00;100965.59;6238003;23;20023;-93
2023/04/17 03:06:02;;;;;;;42.80;29.20;;;;;;;8.95;100.00;100974.41;6240894;23;20020;-93
2023/04/17 03:08:34;;;;;;;43.25;29.52;;;;;;;8.96;100.00;100980.56;6263051;23;20047;-92
2023/04/17 03:11:02;;;;;;;44.42;29.23;;;;;;;8.90;100.00;100981.59;6263090;23;20015;-93
2023/04/17 03:13:31;;;;;;;41.72;29.20;;;;;;;8.90;100.00;100978.94;6230657;23;20020;-92
2023/04/17 03:16:00;;;;;;;44.15;29.67;;;;;;;8.64;100.00;100948.06;6233466;23;20014;-92
2023/04/17 03:18:28;;;;;;;43.50;28.75;;;;;;;8.49;100.00;100927.41;6264632;23;20043;-92
2023/04/17 03:21:02;;;;;;;44.03;28.80;;;;;;;8.42;100.00;100913.53;6257589;23;20070;-91
2023/04/17 03:23:34;;;;;;;46.80;30.35;;;;;;;8.80;100.00;100977.50;6261984;23;20016;-93
2023/04/17 03:26:01;;;;;;;42.90;28.80;;;;;;;8.44;100.00;100916.13;6238382;23;20020;-93
2023/04/17 03:28:28;;;;;;;43.45;30.02;;;;;;;8.78;100.00;100982.84;6265353;23;20038;-93
2023/04/17 03:30:58;;;;;;;43.38;30.45;;;;;;;8.77;100.00;100982.88;6241568;22;20020;-93
2023/04/17 03:33:32;;;;;;;46.75;31.77;;;;;;;8.73;100.00;100983.88;6268080;23;20016;-92
2023/04/17 03:36:15;;;;;;;42.42;29.08;;;;;;;8.29;100.00;100917.41;6269836;22;20068;-93
2023/04/17 03:38:45;;;;;;;44.28;30.67;;;;;;;8.58;100.00;100971.13;6244702;23;20099;-92
2023/04/17 03:41:19;;;;;;;45.10;30.65;;;;;;;8.62;100.00;100992.13;6241096;23;20396;-94
2023/04/17 03:44:00;;;;;;;45.05;29.88;;;;;;;8.51;100.00;100981.00;6269483;23;20016;-93
2023/04/17 03:46:29;;;;;;;45.33;30.48;;;;;;;8.34;100.00;100948.97;6264273;23;20023;-92
2023/04/17 03:48:58;;;;;;;45.33;31.37;;;;;;;8.42;100.00;100966.31;6232827;23;20027;-94
2023/04/17 03:51:32;;;;;;;42.78;28.98;;;;;;;8.47;100.00;100995.22;6259770;23;20071;-92
2023/04/17 03:54:10;;;;;;;46.05;31.35;;;;;;;8.41;100.00;100990.09;6225122;23;20021;-93
2023/04/17 03:56:40;;;;;;;48.72;31.48;;;;;;;8.33;100.00;100978.91;6148910;23;20021;-93
2023/04/17 03:59:09;;;;;;;47.17;31.23;;;;;;;8.32;100.00;100987.72;6223802;23;20013;-92
2023/04/17 04:01:37;;;;;;;45.75;31.10;;;;;;;8.28;100.00;100986.03;6222364;23;20067;-92
2023/04/17 04:04:12;;;;;;;44.42;30.48;;;;;;;8.26;100.00;100994.00;6217736;23;20009;-93
2023/04/17 04:06:51;;;;;;;43.45;29.48;;;;;;;8.23;100.00;100993.22;6222004;23;20023;-93
2023/04/17 04:09:30;;;;;;;47.05;30.40;;;;;;;8.21;100.00;100997.66;6222330;23;20082;-95
2023/04/17 04:12:09;;;;;;;46.95;30.35;;;;;;;8.08;100.00;100968.13;6223496;23;20021;-92
2023/04/17 04:14:56;;;;;;;48.10;30.77;;;;;;;8.16;100.00;100981.13;6224676;23;20016;-93
2023/04/17 04:17:33;;;;;;;48.15;31.77;;;;;;;7.61;100.00;100891.19;6223425;23;20095;-93
2023/04/17 04:20:07;;;;;;;44.95;29.75;;;;;;;8.19;100.00;100986.28;6232365;23;20027;-92
2023/04/17 04:22:35;;;;;;;44.65;30.65;;;;;;;8.06;100.00;100968.16;6252804;23;20072;-91
2023/04/17 04:25:05;;;;;;;43.70;29.35;;;;;;;8.07;100.00;100977.81;6236596;23;20092;-92
2023/04/17 04:27:48;;;;;;;47.42;31.55;;;;;;;8.18;100.00;100989.84;6237560;23;20028;-92
2023/04/17 04:30:15;;;;;;;47.50;30.40;;;;;;;8.15;100.00;100992.56;6255168;23;20072;-92
2023/04/17 04:32:45;;;;;;;45.13;29.30;;;;;;;8.16;100.00;100991.66;6230674;23;20019;-91
2023/04/17 04:35:24;;;;;;;45.03;30.90;;;;;;;8.17;100.00;100998.69;6237679;23;20016;-92
2023/04/17 04:37:53;;;;;;;45.00;30.07;;;;;;;7.98;100.00;100983.34;6232603;23;20013;-91
2023/04/17 04:40:20;;;;;;;45.63;30.45;;;;;;;7.81;100.00;100953.94;6214914;23;20432;-92
2023/04/17 04:42:48;;;;;;;49.05;32.17;;;;;;;7.94;100.00;100983.47;6237530;22;20023;-91
2023/04/17 04:45:19;;;;;;;48.78;30.85;;;;;;;7.83;100.00;100969.72;6215415;23;20012;-91
2023/04/17 04:47:46;;;;;;;46.63;31.13;;;;;;;7.85;100.00;100971.41;6182710;23;20056;-93
2023/04/17 04:50:15;;;;;;;47.08;29.75;;;;;;;8.07;100.00;101022.66;6225539;23;20009;-94
2023/04/17 04:53:03;;;;;;;46.20;31.05;;;;;;;8.08;100.00;101013.84;6254948;23;20008;-92
2023/04/17 04:55:35;;;;;;;45.17;31.13;;;;;;;8.08;100.00;101016.47;6223832;23;20036;-92
2023/04/17 04:58:05;;;;;;;48.85;31.13;;;;;;;7.52;100.00;100924.84;6233654;23;20020;-92
2023/04/17 05:00:35;;;;;;;53.00;32.20;;;;;;;7.91;100.00;100989.69;6239281;22;20015;-92
2023/04/17 05:03:02;;;;;;;45.60;31.10;;;;;;;7.90;100.00;100987.94;6238646;23;20043;-91
2023/04/17 05:05:31;;;;;;;44.83;31.08;;;;;;;7.81;100.00;100977.66;6237230;23;20051;-92
2023/04/17 05:08:00;;;;;;;43.60;29.60;;;;;;;8.18;100.00;101030.31;6239970;23;20023;-92
2023/04/17 05:10:29;;;;;;;51.88;31.88;;;;;;;7.81;100.00;100975.03;6240652;23;20000;-91
2023/04/17 05:13:06;;;;;;;47.30;30.30;;;;;;;7.74;100.00;100953.22;6194890;23;20009;-91
2023/04/17 05:15:58;;;;;;;51.28;32.35;;;;;;;8.18;100.00;101030.31;6180209;23;20113;-94
2023/04/17 05:18:28;;;;;;;47.53;30.33;;;;;;;8.00;100.00;101002.63;6179529;23;20037;-90
2023/04/17 05:21:04;;;;;;;44.45;30.52;;;;;;;8.22;100.00;101038.97;6237469;22;20023;-92
2023/04/17 05:23:41;;;;;;;47.55;30.20;;;;;;;7.95;100.00;100983.44;6271827;22;20075;-91
2023/04/17 05:26:09;;;;;;;44.10;29.67;;;;;;;7.95;100.00;100982.56;6263029;22;20039;-92
2023/04/17 05:28:44;;;;;;;46.60;30.75;;;;;;;8.32;100.00;101030.81;6250104;22;20046;-93
2023/04/17 05:31:23;;;;;;;44.40;29.50;;;;;;;8.39;100.00;101037.63;6303145;22;20023;-92
2023/04/17 05:33:51;;;;;;;42.58;29.02;;;;;;;8.43;100.00;101043.72;6297430;22;20011;-92
2023/04/17 05:36:25;;;;;;;42.97;28.90;;;;;;;8.48;100.00;101039.19;6266506;22;20080;-92
2023/04/17 05:38:56;;;;;;;46.08;28.88;;;;;;;8.52;100.00;101045.22;6258230;22;20091;-91
2023/04/17 05:41:34;;;;;;;42.75;28.55;;;;;;;8.45;100.00;101028.69;6267095;22;20019;-91
2023/04/17 05:44:27;;;;;;;41.72;28.90;;;;;;;8.37;100.00;101018.34;6272695;22;20097;-91
2023/04/17 05:46:56;;;;;;;41.30;27.35;;;;;;;8.63;100.00;101045.78;6264939;22;20019;-92
2023/04/17 05:49:27;;;;;;;41.30;28.75;;;;;;;8.50;100.00;101021.50;6294212;22;20114;-90
2023/04/17 05:52:11;;;;;;;41.92;28.05;;;;;;;8.16;100.00;100955.59;6269920;22;20031;-92
2023/04/17 05:54:41;;;;;;;41.80;27.83;;;;;;;8.74;100.00;101048.97;6263832;22;20020;-91
2023/04/17 05:57:23;;;;;;;40.88;27.70;;;;;;;8.59;100.00;101008.06;6291401;22;20016;-93
2023/04/17 05:59:59;;;;;;;42.88;28.63;;;;;;;8.91;100.00;101044.06;6289479;22;20016;-91
2023/04/17 06:02:26;;;;;;;39.25;27.10;;;;;;;9.01;100.00;101049.94;6228888;22;20020;-92
2023/04/17 06:05:08;;;;;;;42.88;28.00;;;;;;;9.01;100.00;101028.78;6267367;22;20017;-92
2023/04/17 06:07:39;;;;;;;40.17;27.73;;;;;;;9.28;100.00;101051.75;6265463;22;20043;-92
2023/04/17 06:10:36;;;;;;;39.80;26.60;;;;;;;9.19;100.00;101008.88;6278711;22;20020;-92
2023/04/17 06:13:06;;;;;;;36.67;26.65;;;;;;;9.42;100.00;101030.16;6300798;22;20305;-93
2023/04/17 06:16:14;;;;;;;41.67;26.95;;;;;;;9.38;100.00;100994.16;6227406;22;20024;-93
2023/04/17 06:18:54;;;;;;;33.83;24.23;;;;;;;9.85;100.00;101050.78;6228307;23;20013;-93
2023/04/17 06:21:25;;;;;;;34.67;24.92;;;;;;;9.77;100.00;101021.06;6208278;23;20017;-93
2023/04/17 06:23:59;;;;;;;33.53;23.90;;;;;;;10.04;100.00;101040.44;6227709;23;20078;-94
2023/04/17 06:26:42;;;;;;;33.95;24.25;;;;;;;10.01;100.00;101035.25;6201164;23;20744;-93
2023/04/17 06:29:12;;;;;;;31.92;22.48;;;;;;;10.19;100.00;101063.75;6221221;23;20013;-93
2023/04/17 06:31:42;;;;;;;33.97;22.85;;;;;;;10.24;100.00;101080.31;6200188;23;20036;-94
2023/04/17 06:34:21;;;;;;;31.48;23.33;;;;;;;10.19;100.00;101075.22;6230612;23;20048;-93
2023/04/17 06:37:19;;;;;;;34.95;23.15;;;;;;;9.64;100.00;100985.34;6236106;23;20008;-91
2023/04/17 06:40:29;;;;;;;30.85;22.20;;;;;;;10.03;100.00;101042.22;6220538;23;20016;-92
2023/04/17 06:44:01;;;;;;;29.48;21.40;;;;;;;10.08;100.00;101029.66;6214437;23;20009;-93
2023/04/17 06:47:08;;;;;;;30.77;21.27;;;;;;;10.51;100.00;101075.84;6187923;23;20020;-91
2023/04/17 06:49:48;;;;;;;29.63;21.92;;;;;;;10.60;100.00;101080.81;6238077;22;20091;-93
2023/04/17 06:52:59;;;;;;;;;;;;;;;10.74;100.00;101082.94;6294966;22;20053;-92
2023/04/17 06:55:41;;;;;;;33.10;21.95;;;;;;;10.70;100.00;101065.47;6264857;22;19933;-92
2023/04/17 06:58:13;;;;;;;33.47;22.05;;;;;;;10.74;100.00;101067.91;6288981;22;20047;-92
2023/04/17 07:00:43;;;;;;;33.83;22.98;;;;;;;10.44;100.00;101005.50;6288613;22;20011;-92
2023/04/17 07:03:15;;;;;;;32.80;22.83;;;;;;;10.89;100.00;101080.59;6262006;22;20016;-92
2023/04/17 07:06:10;;;;;;;32.35;22.98;;;;;;;10.75;100.00;101061.69;6249214;22;20102;-92
2023/04/17 07:08:52;;;;;;;33.25;23.10;;;;;;;10.99;100.00;101090.88;6262095;22;20049;-91
2023/04/17 07:11:21;;;;;;;34.13;23.58;;;;;;;10.60;100.00;101016.38;6268973;22;20027;-93
2023/04/17 07:13:58;;;;;;;31.10;22.92;;;;;;;11.10;100.00;101075.41;6270146;22;20057;-92
2023/04/17 07:16:27;;;;;;;32.60;21.52;;;;;;;11.00;100.00;101059.00;6247826;22;20034;-92
2023/04/17 07:19:13;;;;;;;33.63;22.55;;;;;;;11.02;100.00;101043.06;6300300;22;20019;-93
2023/04/17 07:21:43;;;;;;;31.20;22.60;;;;;;;11.27;100.00;101090.69;6273547;22;20003;-92
2023/04/17 07:24:26;;;;;;;29.63;20.55;;;;;;;11.06;100.00;101063.19;6271202;22;20015;-93
2023/04/17 07:27:18;;;;;;;32.63;22.58;;;;;;;11.17;100.00;101082.22;6290772;22;20020;-93
2023/04/17 07:30:02;;;;;;;33.05;22.90;;;;;;;11.19;100.00;101088.31;6272895;22;20023;-92
2023/04/17 07:32:43;;;;;;;37.15;23.23;;;;;;;11.22;100.00;101085.53;6261315;22;20015;-92
2023/04/17 07:35:26;;;;;;;32.60;22.17;;;;;;;11.19;100.00;101097.13;6243362;22;20255;-91
2023/04/17 07:38:09;;;;;;;36.08;22.55;;;;;;;11.18;100.00;101102.47;6242347;22;20047;-92
2023/04/17 07:40:40;;;;;;;42.83;24.40;;;;;;;11.14;100.00;101104.41;6237004;22;20095;-92
2023/04/17 07:43:31;;;;;;;34.80;22.30;;;;;;;11.11;100.00;101103.66;6241049;22;20043;-91
2023/04/17 07:46:16;;;;;;;33.40;23.50;;;;;;;11.18;100.00;101099.84;6263902;22;20018;-94
2023/04/17 07:49:01;;;;;;;40.80;23.20;;;;;;;11.29;100.00;101107.41;6280207;22;20095;-93
2023/04/17 07:51:31;;;;;;;34.70;22.85;;;;;;;11.17;100.00;101109.59;6287494;22;20087;-92
2023/04/17 07:54:12;;;;;;;30.88;22.95;;;;;;;11.23;100.00;101106.69;6241212;22;20130;-92
2023/04/17 07:56:45;;;;;;;31.33;22.48;;;;;;;11.21;100.00;101110.31;6271530;22;20010;-93
2023/04/17 07:59:35;;;;;;;30.80;21.75;;;;;;;11.05;100.00;101080.88;6266292;22;20012;-91
2023/04/17 08:02:15;;;;;;;28.88;21.17;;;;;;;11.10;100.00;101088.66;6287275;22;20008;-92
2023/04/17 08:04:59;;;;;;;33.42;22.17;;;;;;;11.00;100.00;101074.91;6262511;22;20027;-92
2023/04/17 08:07:27;;;;;;;29.17;21.98;;;;;;;11.14;100.00;101095.59;6264957;22;20774;-93
2023/04/17 08:09:55;;;;;;;29.98;22.10;;;;;;;10.99;100.00;101067.88;6268677;22;20042;-93
2023/04/17 08:12:22;;;;;;;30.92;21.85;;;;;;;11.08;100.00;101077.25;6268883;22;20008;-93
2023/04/17 08:14:53;;;;;;;34.22;22.38;;;;;;;11.33;100.00;101115.19;6265326;22;20111;-91
2023/04/17 08:17:24;;;;;;;30.73;21.80;;;;;;;11.21;100.00;101107.66;6264309;22;20019;-92
2023/04/17 08:19:57;;;;;;;30.70;21.90;;;;;;;11.08;100.00;101098.47;6291086;22;20027;-92
2023/04/17 08:22:52;;;;;;;30.75;20.90;;;;;;;11.16;100.00;101125.56;6266925;22;20007;-93
2023/04/17 08:25:35;;;;;;;31.48;21.02;;;;;;;11.19;100.00;101120.97;6272002;22;20026;-91
2023/04/17 08:28:03;;;;;;;30.55;21.27;;;;;;;11.17;100.00;101125.50;6242395;23;20016;-93
2023/04/17 08:30:34;;;;;;;30.80;22.40;;;;;;;11.08;100.00;101114.38;6268006;23;20016;-90
2023/04/17 08:33:04;;;;;;;29.42;20.80;;;;;;;11.03;100.00;101111.88;6242634;23;20050;-91
2023/04/17 08:35:32;;;;;;;29.40;21.30;;;;;;;11.05;100.00;101125.06;6264761;23;20020;-92
2023/04/17 08:38:02;;;;;;;28.83;20.27;;;;;;;11.00;100.00;101137.66;6263798;23;20126;-91
2023/04/17 08:40:30;;;;;;;29.92;21.20;;;;;;;10.92;100.00;101140.56;6265835;22;20016;-92
2023/04/17 08:43:18;;;;;;;31.13;20.98;;;;;;;10.90;100.00;101143.28;6261058;23;20012;-89
2023/04/17 08:45:55;;;;;;;31.00;21.75;;;;;;;10.58;100.00;101093.22;6263366;23;20075;-94
2023/04/17 08:48:23;;;;;;;30.45;21.00;;;;;;;10.88;100.00;101131.84;6271292;22;20024;-94
2023/04/17 08:51:08;;;;;;;28.98;20.58;;;;;;;10.83;100.00;101128.53;6267397;22;20020;-93
2023/04/17 08:53:48;;;;;;;30.58;21.17;;;;;;;10.66;100.00;101095.63;6271919;22;20016;-92
2023/04/17 08:56:33;;;;;;;30.02;20.90;;;;;;;10.88;100.00;101145.09;6271792;22;20031;-92
2023/04/17 08:59:27;;;;;;;30.83;21.90;;;;;;;10.81;100.00;101138.31;6264304;22;20015;-92
2023/04/17 09:02:08;;;;;;;30.85;20.73;;;;;;;10.83;100.00;101147.09;6229369;22;24521;-92
2023/04/17 09:04:45;;;;;;;31.85;21.77;;;;;;;10.67;100.00;101130.00;6238172;22;20275;-93
2023/04/17 09:07:29;;;;;;;30.83;20.65;;;;;;;10.78;100.00;101158.75;6238449;22;20015;-92
2023/04/17 09:09:57;;;;;;;25.25;18.48;;;;;;;10.54;100.00;101123.41;6237866;23;20031;-94
2023/04/17 09:12:30;;;;;;;21.50;15.30;;;;;;;10.68;100.00;101146.75;6214713;23;20289;-92
2023/04/17 09:14:57;;;;;;;22.00;15.90;;;;;;;10.71;100.00;101136.03;6239495;22;20031;-93
2023/04/17 09:17:33;;;;;;;19.02;14.57;;;;;;;10.60;100.00;101107.28;6236858;22;20012;-91
2023/04/17 09:20:11;;;;;;;20.85;14.82;;;;;;;10.76;100.00;101145.56;6241528;22;20032;-91
2023/04/17 09:22:49;;;;;;;21.15;15.52;;;;;;;10.78;100.00;101153.44;6241239;22;20008;-92
2023/04/17 09:25:32;;;;;;;22.77;15.70;;;;;;;10.60;100.00;101117.03;6235206;22;20060;-92
2023/04/17 09:28:13;;;;;;;20.10;14.60;;;;;;;10.76;100.00;101145.56;6262672;22;20047;-92
2023/04/17 09:30:55;;;;;;;22.88;15.32;;;;;;;10.87;100.00;101135.44;6198149;22;20012;-92
2023/04/17 09:34:10;;;;;;;21.67;16.23;;;;;;;11.13;100.00;101139.78;6237105;22;20008;-93
2023/04/17 09:36:58;;;;;;;23.23;15.70;;;;;;;11.48;100.00;101142.88;6262122;22;20008;-93
2023/04/17 09:40:14;;;;;;;21.67;15.27;;;;;;;11.99;100.00;101133.78;6239324;22;20017;-92
2023/04/17 09:43:03;;;;;;;21.45;14.85;;;;;;;12.41;100.00;101139.97;6208612;23;20004;-93
2023/04/17 09:45:46;;;;;;;29.92;19.58;;;;;;;12.65;100.00;101138.91;6241311;22;20023;-91
2023/04/17 09:48:27;;;;;;;23.25;16.25;;;;;;;12.82;100.00;101139.97;6212735;22;20008;-92
2023/04/17 09:51:15;;;;;;;20.67;15.88;;;;;;;12.94;100.00;101118.13;6217807;23;20020;-92
2023/04/17 09:54:06;;;;;;;22.58;15.13;;;;;;;13.22;100.00;101139.91;6243927;22;20012;-93
2023/04/17 09:56:42;;;;;;;17.60;14.20;;;;;;;12.96;100.00;101095.00;6217102;22;20020;-90
2023/04/17 09:59:26;;;;;;;17.30;13.57;;;;;;;12.75;100.00;101070.25;6242246;22;20019;-92
2023/04/17 10:02:20;;;;;;;19.58;13.90;;;;;;;12.88;100.00;101092.72;6243211;22;20032;-91
2023/04/17 10:05:07;;;;;;;18.13;13.68;;;;;;;13.13;99.30;101139.44;6218511;22;20013;-91
2023/04/17 10:07:49;;;;;;;18.98;13.35;;;;;;;13.13;100.00;101145.63;6242934;22;20009;-93
2023/04/17 10:10:35;;;;;;;16.77;11.80;;;;;;;13.02;96.28;101129.31;6213086;23;20021;-93
2023/04/17 10:13:25;;;;;;;15.88;11.60;;;;;;;13.02;97.04;101137.28;6242571;22;20012;-92
2023/04/17 10:15:59;;;;;;;14.35;11.60;;;;;;;13.03;97.97;101136.34;6265997;23;20044;-92
2023/04/17 10:18:27;;;;;;;16.15;11.80;;;;;;;12.99;99.38;101130.31;6234808;23;20016;-93
2023/04/17 10:20:56;;;;;;;14.40;11.52;;;;;;;12.98;97.39;101111.75;6230368;23;20040;-92
2023/04/17 10:23:31;;;;;;;14.68;9.77;;;;;;;12.97;91.77;101134.81;6204579;23;20032;-93
2023/04/17 10:26:23;;;;;;;15.65;10.13;;;;;;;12.79;92.21;101130.31;6232563;23;20036;-93
2023/04/17 10:28:52;;;;;;;12.70;9.20;;;;;;;12.79;94.95;101126.78;6212126;23;20069;-93
2023/04/17 10:31:43;;;;;;;10.93;8.15;;;;;;;12.91;92.42;101104.97;6210806;23;20087;-93
2023/04/17 10:34:34;;;;;;;9.98;7.63;;;;;;;13.32;89.66;101122.59;6203801;23;20009;-93
2023/04/17 10:37:43;;;;;;;8.93;7.75;;;;;;;13.40;87.61;101124.88;6236580;23;20047;-93
2023/04/17 10:40:19;;;;;;;10.10;8.35;;;;;;;13.06;89.29;101088.34;6219485;23;20034;-90
2023/04/17 10:43:22;;;;;;;14.40;8.95;;;;;;;13.07;89.90;101124.63;6211418;23;20056;-93
2023/04/17 10:46:12;;;;;;;13.27;8.68;;;;;;;12.82;91.45;101135.50;6240010;23;20061;-91
2023/04/17 10:48:51;;;;;;;10.93;7.70;;;;;;;12.57;92.45;101134.88;6216706;22;20036;-91
2023/04/17 10:51:26;;;;;;;9.80;7.90;;;;;;;12.19;94.04;101116.13;6217543;22;20011;-92
2023/04/17 10:54:08;;;;;;;11.07;7.95;;;;;;;12.14;96.57;101134.03;6242381;22;20120;-93
2023/04/17 10:56:47;;;;;;;14.73;9.68;;;;;;;12.05;100.00;101125.59;6242620;22;20060;-92
2023/04/17 10:59:17;;;;;;;11.85;8.55;;;;;;;12.14;100.00;101122.53;6218046;22;20013;-93
2023/04/17 11:01:48;;;;;;;12.00;9.27;;;;;;;12.44;99.31;101120.38;6240164;23;20020;-93
2023/04/17 11:04:47;;;;;;;13.23;9.15;;;;;;;12.69;95.67;101101.56;6241844;22;20068;-92
2023/04/17 11:07:15;;;;;;;;;;;;;;;13.06;92.68;101117.59;6210915;23;20017;-92
2023/04/17 11:09:50;;;;;;;13.38;9.10;;;;;;;13.27;91.69;101110.44;6233908;23;20337;-93
2023/04/17 11:12:41;;;;;;;11.10;8.27;;;;;;;13.50;87.88;101104.91;6234669;23;20024;-92
2023/04/17 11:15:45;;;;;;;10.35;7.72;;;;;;;13.70;85.15;101048.03;6226689;23;20079;-93
2023/04/17 11:18:20;;;;;;;9.52;7.47;;;;;;;14.17;76.37;101072.28;6179607;23;20067;-93
2023/04/17 11:21:15;;;;;;;9.38;7.18;;;;;;;14.24;76.62;101079.03;6183696;23;20087;-94
2023/04/17 11:23:52;;;;;;;6.72;5.10;;;;;;;14.16;73.50;101067.06;6227023;23;20035;-93
2023/04/17 11:26:22;;;;;;;9.00;6.22;;;;;;;14.23;74.68;101103.06;6205111;23;20013;-94
2023/04/17 11:28:52;;;;;;;6.85;5.72;;;;;;;13.75;77.84;101063.78;6206274;23;20345;-94
2023/04/17 11:31:25;;;;;;;8.35;6.00;;;;;;;13.66;80.98;101103.25;6260631;23;20024;-93
2023/04/17 11:34:15;;;;;;;8.05;5.50;;;;;;;13.12;82.88;101042.84;6236787;23;20034;-94
2023/04/17 11:36:56;;;;;;;7.40;5.35;;;;;;;13.28;82.85;101101.53;6232940;23;20087;-92
2023/04/17 11:39:33;;;;;;;5.97;5.13;;;;;;;13.26;81.78;101103.41;6268279;22;20035;-91
2023/04/17 11:42:02;;;;;;;6.40;4.93;;;;;;;13.20;84.12;101104.56;6219788;22;20016;-91
2023/04/17 11:44:32;;;;;;;6.88;4.10;;;;;;;13.06;82.86;101091.00;6244619;23;20035;-91
2023/04/17 11:47:19;;;;;;;5.93;4.15;;;;;;;12.91;78.45;101097.00;6247248;23;20035;-91
2023/04/17 11:49:51;;;;;;;4.90;3.58;;;;;;;12.73;78.23;101103.16;6244849;22;20063;-90
2023/04/17 11:52:20;;;;;;;4.20;3.70;;;;;;;12.30;79.41;101042.16;6201627;23;20044;-90
2023/04/17 11:55:02;;;;;;;4.18;3.72;;;;;;;12.80;79.72;101123.22;6185816;23;20016;-90
2023/04/17 11:57:44;;;;;;;5.45;3.38;;;;;;;12.37;75.20;101053.38;6212195;23;20118;-91